createdAt,value
2023-03-25T00:00:16.831Z,10.23
2023-03-25T00:02:49.345Z,9.00
2023-03-25T00:05:19.210Z,8.82
2023-03-25T00:07:48.593Z,8.52
2023-03-25T00:10:15.551Z,8.55
2023-03-25T00:12:45.469Z,8.80
2023-03-25T00:15:13.790Z,9.18
2023-03-25T00:17:40.573Z,8.25
2023-03-25T00:20:10.194Z,8.73
2023-03-25T00:22:41.130Z,8.73
2023-03-25T00:25:19.264Z,7.20
2023-03-25T00:27:48.015Z,8.25
2023-03-25T00:30:16.144Z,7.30
2023-03-25T00:32:46.023Z,7.82
2023-03-25T00:35:14.102Z,7.68
2023-03-25T00:37:41.417Z,8.27
2023-03-25T00:40:09.329Z,8.40
2023-03-25T00:42:36.088Z,7.80
2023-03-25T00:45:03.614Z,7.47
2023-03-25T00:47:31.585Z,8.27
2023-03-25T00:49:58.293Z,8.07
2023-03-25T00:52:25.005Z,8.02
2023-03-25T00:54:52.833Z,8.35
2023-03-25T00:57:19.643Z,7.75
2023-03-25T00:59:46.325Z,7.80
2023-03-25T01:02:13.139Z,8.10
2023-03-25T01:04:42.227Z,8.07
2023-03-25T01:07:12.748Z,7.70
2023-03-25T01:09:39.599Z,7.57
2023-03-25T01:12:06.456Z,8.40
2023-03-25T01:14:33.158Z,7.72
2023-03-25T01:17:00.557Z,7.53
2023-03-25T01:19:27.387Z,7.30
2023-03-25T01:21:54.482Z,8.20
2023-03-25T01:24:21.181Z,7.88
2023-03-25T01:26:48.224Z,7.57
2023-03-25T01:29:17.826Z,8.10
2023-03-25T01:31:44.793Z,8.32
2023-03-25T01:34:12.448Z,7.47
2023-03-25T01:36:46.883Z,7.82
2023-03-25T01:39:18.734Z,7.07
2023-03-25T01:41:50.203Z,7.85
2023-03-25T01:46:53.879Z,7.78
2023-03-25T01:49:24.641Z,6.78
2023-03-25T01:51:56.807Z,7.25
2023-03-25T01:54:24.267Z,7.50
2023-03-25T01:56:52.422Z,7.68
2023-03-25T01:59:25.172Z,7.80
2023-03-25T02:01:53.786Z,6.45
2023-03-25T02:04:34.921Z,7.68
2023-03-25T02:07:02.329Z,7.90
2023-03-25T02:09:29.379Z,6.95
2023-03-25T02:11:55.984Z,7.18
2023-03-25T02:14:30.593Z,7.80
2023-03-25T02:17:03.268Z,7.07
2023-03-25T02:19:33.335Z,7.68
2023-03-25T02:22:37.712Z,7.18
2023-03-25T02:25:46.133Z,7.20
2023-03-25T02:28:38.178Z,8.30
2023-03-25T02:31:10.695Z,8.80
2023-03-25T02:34:05.348Z,8.80
2023-03-25T02:37:00.258Z,8.68
2023-03-25T02:39:54.721Z,8.35
2023-03-25T02:42:27.718Z,8.48
2023-03-25T02:44:59.297Z,9.07
2023-03-25T02:47:31.722Z,8.85
2023-03-25T02:50:04.872Z,8.95
2023-03-25T02:52:46.638Z,10.15
2023-03-25T02:55:17.879Z,11.23
2023-03-25T02:57:47.808Z,10.57
2023-03-25T03:00:20.676Z,10.32
2023-03-25T03:02:59.971Z,10.93
2023-03-25T03:05:34.139Z,9.57
2023-03-25T03:08:00.706Z,10.63
2023-03-25T03:10:37.263Z,9.63
2023-03-25T03:13:33.292Z,11.02
2023-03-25T03:16:39.452Z,10.80
2023-03-25T03:19:14.442Z,11.57
2023-03-25T03:22:01.454Z,10.30
2023-03-25T03:24:40.102Z,11.25
2023-03-25T03:27:15.081Z,11.45
2023-03-25T03:29:48.297Z,12.13
2023-03-25T03:32:29.866Z,11.85
2023-03-25T03:35:04.266Z,9.93
2023-03-25T03:37:38.147Z,10.35
2023-03-25T03:40:09.802Z,11.40
2023-03-25T03:42:49.337Z,11.98
2023-03-25T03:45:33.463Z,12.15
2023-03-25T03:48:04.632Z,11.85
2023-03-25T03:50:36.701Z,12.10
2023-03-25T03:53:23.752Z,11.88
2023-03-25T03:55:55.648Z,12.32
2023-03-25T03:58:28.583Z,11.43
2023-03-25T04:01:28.146Z,11.63
2023-03-25T04:04:22.711Z,11.10
2023-03-25T04:07:05.178Z,12.23
2023-03-25T04:12:11.502Z,12.30
2023-03-25T04:14:39.243Z,11.80
2023-03-25T04:17:06.710Z,11.25
2023-03-25T04:19:34.159Z,11.25
2023-03-25T04:22:04.864Z,11.55
2023-03-25T04:24:32.430Z,11.57
2023-03-25T04:27:03.556Z,11.50
2023-03-25T04:29:32.126Z,9.93
2023-03-25T04:32:00.171Z,10.32
2023-03-25T04:34:27.775Z,10.25
2023-03-25T04:36:57.264Z,9.80
2023-03-25T04:39:25.683Z,9.90
2023-03-25T04:42:03.566Z,10.00
2023-03-25T04:44:33.822Z,10.80
2023-03-25T04:47:02.326Z,11.30
2023-03-25T04:49:29.375Z,8.82
2023-03-25T04:51:57.077Z,9.00
2023-03-25T04:54:24.207Z,8.88
2023-03-25T04:56:52.304Z,8.93
2023-03-25T04:59:19.974Z,9.32
2023-03-25T05:01:47.467Z,9.75
2023-03-25T05:04:18.414Z,10.55
2023-03-25T05:06:48.569Z,9.63
2023-03-25T05:09:19.127Z,11.15
2023-03-25T05:11:46.358Z,10.90
2023-03-25T05:14:15.475Z,11.65
2023-03-25T05:16:42.792Z,10.55
2023-03-25T05:19:10.059Z,10.35
2023-03-25T05:21:38.130Z,10.82
2023-03-25T05:24:11.034Z,10.02
2023-03-25T05:26:40.027Z,9.15
2023-03-25T05:29:13.972Z,8.45
2023-03-25T05:31:41.640Z,8.20
2023-03-25T05:34:08.588Z,9.32
2023-03-25T05:36:35.932Z,8.43
2023-03-25T05:39:05.668Z,9.55
2023-03-25T05:41:33.149Z,9.07
2023-03-25T05:44:03.230Z,9.13
2023-03-25T05:46:29.955Z,11.43
2023-03-25T05:48:57.720Z,10.98
2023-03-25T05:51:27.094Z,11.15
2023-03-25T05:53:54.352Z,11.23
2023-03-25T05:56:24.397Z,10.25
2023-03-25T05:58:52.285Z,9.95
2023-03-25T06:01:32.665Z,10.75
2023-03-25T06:04:02.066Z,10.57
2023-03-25T06:06:30.784Z,9.85
2023-03-25T06:08:58.209Z,10.98
2023-03-25T06:11:26.010Z,10.93
2023-03-25T06:13:53.101Z,10.50
2023-03-25T06:16:29.967Z,8.48
2023-03-25T06:19:00.256Z,10.32
2023-03-25T06:21:33.087Z,10.25
2023-03-25T06:24:02.401Z,9.57
2023-03-25T06:26:29.880Z,10.52
2023-03-25T06:28:58.156Z,11.27
2023-03-25T06:31:26.917Z,10.70
2023-03-25T06:33:55.226Z,10.60
2023-03-25T06:36:21.855Z,10.80
2023-03-25T06:38:50.438Z,11.95
2023-03-25T06:41:22.058Z,10.68
2023-03-25T06:43:49.257Z,10.20
2023-03-25T06:46:16.964Z,10.95
2023-03-25T06:48:44.032Z,11.05
2023-03-25T06:51:11.598Z,10.80
2023-03-25T06:53:38.537Z,9.95
2023-03-25T06:56:05.699Z,9.18
2023-03-25T06:58:35.350Z,7.38
2023-03-25T07:01:07.274Z,8.63
2023-03-25T07:06:02.079Z,9.20
2023-03-25T07:08:28.972Z,10.32
2023-03-25T07:11:02.337Z,8.73
2023-03-25T07:13:31.315Z,9.48
2023-03-25T07:15:59.204Z,10.23
2023-03-25T07:18:26.726Z,9.05
2023-03-25T07:20:53.853Z,8.45
2023-03-25T07:23:20.888Z,9.52
2023-03-25T07:25:47.945Z,9.05
2023-03-25T07:28:14.776Z,9.38
2023-03-25T07:30:41.614Z,9.25
2023-03-25T07:33:08.656Z,9.13
2023-03-25T07:35:35.514Z,8.88
2023-03-25T07:38:03.004Z,8.55
2023-03-25T07:40:29.722Z,9.13
2023-03-25T07:42:56.357Z,8.98
2023-03-25T07:45:23.469Z,10.15
2023-03-25T07:47:51.055Z,8.05
2023-03-25T07:50:19.723Z,10.20
2023-03-25T07:52:46.770Z,9.00
2023-03-25T07:55:14.593Z,8.73
2023-03-25T07:57:44.338Z,8.73
2023-03-25T08:00:12.005Z,8.40
2023-03-25T08:02:39.539Z,9.73
2023-03-25T08:05:10.304Z,7.50
2023-03-25T08:07:36.872Z,8.05
2023-03-25T08:10:04.212Z,7.20
2023-03-25T08:12:31.062Z,8.63
2023-03-25T08:14:58.078Z,9.02
2023-03-25T08:17:24.869Z,9.35
2023-03-25T08:19:51.671Z,10.95
2023-03-25T08:22:18.550Z,9.15
2023-03-25T08:24:45.501Z,9.80
2023-03-25T08:27:14.852Z,9.77
2023-03-25T08:29:44.535Z,8.80
2023-03-25T08:32:11.329Z,9.70
2023-03-25T08:34:40.083Z,8.75
2023-03-25T08:37:08.114Z,9.20
2023-03-25T08:39:39.747Z,9.43
2023-03-25T08:42:07.597Z,8.65
2023-03-25T08:44:34.722Z,8.75
2023-03-25T08:47:01.898Z,8.05
2023-03-25T08:49:28.540Z,8.50
2023-03-25T08:51:57.643Z,9.00
2023-03-25T08:54:26.262Z,9.25
2023-03-25T08:56:53.050Z,8.65
2023-03-25T08:59:20.581Z,7.28
2023-03-25T09:01:47.723Z,7.82
2023-03-25T09:04:14.421Z,7.10
2023-03-25T09:06:47.612Z,7.43
2023-03-25T09:09:16.529Z,7.00
2023-03-25T09:11:43.210Z,8.27
2023-03-25T09:14:10.378Z,7.03
2023-03-25T09:16:36.977Z,6.93
2023-03-25T09:19:04.109Z,6.93
2023-03-25T09:21:31.204Z,7.22
2023-03-25T09:23:57.835Z,7.05
2023-03-25T09:26:26.192Z,6.45
2023-03-25T09:28:55.624Z,6.68
2023-03-25T09:31:23.550Z,6.38
2023-03-25T09:33:50.570Z,5.90
2023-03-25T09:36:17.420Z,6.30
2023-03-25T09:38:44.373Z,4.40
2023-03-25T09:41:34.119Z,5.10
2023-03-25T09:44:15.114Z,5.50
2023-03-25T09:46:42.335Z,3.88
2023-03-25T09:49:18.443Z,3.60
2023-03-25T09:51:48.905Z,2.72
2023-03-25T09:54:34.119Z,2.75
2023-03-25T09:57:07.500Z,2.25
2023-03-25T09:59:44.564Z,2.45
2023-03-25T10:02:41.718Z,2.03
2023-03-25T10:05:14.912Z,2.60
2023-03-25T10:08:04.569Z,2.45
2023-03-25T10:10:46.620Z,2.30
2023-03-25T10:16:00.245Z,2.80
2023-03-25T10:18:37.873Z,2.35
2023-03-25T10:21:23.907Z,2.42
2023-03-25T10:24:11.940Z,2.40
2023-03-25T10:26:51.029Z,2.03
2023-03-25T10:29:28.098Z,2.13
2023-03-25T10:32:00.373Z,2.05
2023-03-25T10:34:40.479Z,2.13
2023-03-25T10:37:12.664Z,1.60
2023-03-25T10:39:44.645Z,2.47
2023-03-25T10:44:57.784Z,2.92
2023-03-25T10:47:29.187Z,2.15
2023-03-25T10:49:57.252Z,2.67
2023-03-25T10:52:25.301Z,2.08
2023-03-25T10:54:56.213Z,2.50
2023-03-25T10:57:27.835Z,2.40
2023-03-25T11:00:12.754Z,1.67
2023-03-25T11:02:39.629Z,2.67
2023-03-25T11:05:08.263Z,1.65
2023-03-25T11:08:08.731Z,1.67
2023-03-25T11:10:47.792Z,1.67
2023-03-25T11:13:16.856Z,2.25
2023-03-25T11:15:44.607Z,1.60
2023-03-25T11:18:44.458Z,2.30
2023-03-25T11:21:15.760Z,2.03
2023-03-25T11:23:45.981Z,1.83
2023-03-25T11:26:25.294Z,1.95
2023-03-25T11:28:56.171Z,1.88
2023-03-25T11:31:28.157Z,1.80
2023-03-25T11:34:07.566Z,2.25
2023-03-25T11:36:40.360Z,1.83
2023-03-25T11:39:30.297Z,1.85
2023-03-25T11:41:57.821Z,2.45
2023-03-25T11:44:33.107Z,2.00
2023-03-25T11:47:06.370Z,1.77
2023-03-25T11:49:38.507Z,2.60
2023-03-25T11:52:09.639Z,4.20
2023-03-25T11:54:37.461Z,3.80
2023-03-25T11:57:07.443Z,2.25
2023-03-25T11:59:45.669Z,1.83
2023-03-25T12:02:37.597Z,1.70
2023-03-25T12:05:16.742Z,2.10
2023-03-25T12:07:52.601Z,2.20
2023-03-25T12:10:32.066Z,1.55
2023-03-25T12:13:17.307Z,2.33
2023-03-25T12:15:56.192Z,2.15
2023-03-25T12:18:53.917Z,1.80
2023-03-25T12:21:50.729Z,1.95
2023-03-25T12:24:38.745Z,1.80
2023-03-25T12:27:31.150Z,2.45
2023-03-25T12:30:25.718Z,5.72
2023-03-25T12:33:13.765Z,1.10
2023-03-25T12:36:01.896Z,1.67
2023-03-25T12:38:47.294Z,1.98
2023-03-25T12:41:51.988Z,1.52
2023-03-25T12:44:27.655Z,1.88
2023-03-25T12:46:57.412Z,2.10
2023-03-25T12:49:37.086Z,2.83
2023-03-25T12:52:32.300Z,1.67
2023-03-25T12:55:36.747Z,2.08
2023-03-25T12:58:21.489Z,1.90
2023-03-25T13:01:07.232Z,1.90
2023-03-25T13:04:04.729Z,1.67
2023-03-25T13:06:49.612Z,1.50
2023-03-25T13:09:25.569Z,6.25
2023-03-25T13:11:58.964Z,6.55
2023-03-25T13:14:32.128Z,1.65
2023-03-25T13:17:02.860Z,1.67
2023-03-25T13:19:34.733Z,2.50
2023-03-25T13:24:51.661Z,1.58
2023-03-25T13:27:19.900Z,1.95
2023-03-25T13:29:59.256Z,1.27
2023-03-25T13:32:37.115Z,1.63
2023-03-25T13:35:12.114Z,1.83
2023-03-25T13:37:43.317Z,2.10
2023-03-25T13:40:10.888Z,2.03
2023-03-25T13:43:02.271Z,2.20
2023-03-25T13:45:35.643Z,2.15
2023-03-25T13:48:17.872Z,2.30
2023-03-25T13:50:44.956Z,2.08
2023-03-25T13:53:41.333Z,2.10
2023-03-25T13:56:11.633Z,2.03
2023-03-25T13:59:05.779Z,1.45
2023-03-25T14:02:08.423Z,1.63
2023-03-25T14:04:46.959Z,1.90
2023-03-25T14:07:48.317Z,1.73
2023-03-25T14:10:52.881Z,1.58
2023-03-25T14:13:42.996Z,2.00
2023-03-25T14:16:16.516Z,1.65
2023-03-25T14:18:53.362Z,1.88
2023-03-25T14:21:38.475Z,1.55
2023-03-25T14:24:10.617Z,1.58
2023-03-25T14:26:48.590Z,1.65
2023-03-25T14:29:40.430Z,1.55
2023-03-25T14:32:22.001Z,2.08
2023-03-25T14:34:50.049Z,1.83
2023-03-25T14:37:29.119Z,1.80
2023-03-25T14:40:02.174Z,1.63
2023-03-25T14:43:01.691Z,2.05
2023-03-25T14:45:32.423Z,2.25
2023-03-25T14:48:00.800Z,2.63
2023-03-25T14:50:28.225Z,2.55
2023-03-25T14:53:05.909Z,2.50
2023-03-25T14:55:36.655Z,2.45
2023-03-25T14:58:16.846Z,2.80
2023-03-25T15:00:53.959Z,2.80
2023-03-25T15:03:22.781Z,3.05
2023-03-25T15:06:00.796Z,2.15
2023-03-25T15:08:42.989Z,2.08
2023-03-25T15:11:17.315Z,2.30
2023-03-25T15:13:54.537Z,2.90
2023-03-25T15:16:38.063Z,2.88
2023-03-25T15:19:12.958Z,3.17
2023-03-25T15:21:58.443Z,2.38
2023-03-25T15:24:36.662Z,2.85
2023-03-25T15:27:26.043Z,4.65
2023-03-25T15:30:01.350Z,3.60
2023-03-25T15:32:43.227Z,3.88
2023-03-25T15:35:32.671Z,6.25
2023-03-25T15:38:21.783Z,4.30
2023-03-25T15:41:14.737Z,4.18
2023-03-25T15:44:00.596Z,4.45
2023-03-25T15:46:53.045Z,4.93
2023-03-25T15:50:08.076Z,5.72
2023-03-25T15:53:05.941Z,5.25
2023-03-25T15:56:06.729Z,5.03
2023-03-25T15:58:55.516Z,4.32
2023-03-25T16:01:33.021Z,4.93
2023-03-25T16:04:05.875Z,4.90
2023-03-25T16:06:40.260Z,5.18
2023-03-25T16:09:11.620Z,6.75
2023-03-25T16:11:43.722Z,6.38
2023-03-25T16:16:50.640Z,9.45
2023-03-25T16:19:22.758Z,6.97
2023-03-25T16:24:20.704Z,6.07
2023-03-25T16:26:49.176Z,7.35
2023-03-25T16:29:17.952Z,6.85
2023-03-25T16:32:02.334Z,7.15
2023-03-25T16:34:38.104Z,6.80
2023-03-25T16:37:06.936Z,7.00
2023-03-25T16:39:36.779Z,7.97
2023-03-25T16:42:34.684Z,7.95
2023-03-25T16:45:03.007Z,9.73
2023-03-25T16:47:33.522Z,8.52
2023-03-25T16:50:02.959Z,10.40
2023-03-25T16:52:33.067Z,11.32
2023-03-25T16:54:59.646Z,11.23
2023-03-25T16:57:34.061Z,11.52
2023-03-25T17:00:20.501Z,10.25
2023-03-25T17:02:49.810Z,10.98
2023-03-25T17:05:22.445Z,10.27
2023-03-25T17:08:04.179Z,8.20
2023-03-25T17:10:47.758Z,8.77
2023-03-25T17:13:22.852Z,8.15
2023-03-25T17:15:51.586Z,6.15
2023-03-25T17:18:20.900Z,7.03
2023-03-25T17:20:49.373Z,8.85
2023-03-25T17:23:35.048Z,9.57
2023-03-25T17:26:12.691Z,6.70
2023-03-25T17:28:43.220Z,7.80
2023-03-25T17:31:38.159Z,7.35
2023-03-25T17:34:07.434Z,6.70
2023-03-25T17:36:40.562Z,9.23
2023-03-25T17:39:19.438Z,10.93
2023-03-25T17:41:46.848Z,15.05
2023-03-25T17:44:16.950Z,14.75
2023-03-25T17:46:44.224Z,11.68
2023-03-25T17:49:16.884Z,13.90
2023-03-25T17:51:44.055Z,14.73
2023-03-25T17:54:10.940Z,15.65
2023-03-25T17:56:39.603Z,16.85
2023-03-25T17:59:14.382Z,18.92
2023-03-25T18:01:41.166Z,13.55
2023-03-25T18:04:09.468Z,14.10
2023-03-25T18:06:36.417Z,14.30
2023-03-25T18:09:03.660Z,15.48
2023-03-25T18:11:31.102Z,16.50
2023-03-25T18:13:57.848Z,16.83
2023-03-25T18:16:24.752Z,17.75
2023-03-25T18:18:51.931Z,17.15
2023-03-25T18:21:20.159Z,16.17
2023-03-25T18:23:48.645Z,14.85
2023-03-25T18:26:18.651Z,18.30
2023-03-25T18:28:49.124Z,14.35
2023-03-25T18:31:17.854Z,14.60
2023-03-25T18:33:50.229Z,19.83
2023-03-25T18:36:18.862Z,19.35
2023-03-25T18:38:46.260Z,21.42
2023-03-25T18:41:17.681Z,23.67
2023-03-25T18:43:44.668Z,25.97
2023-03-25T18:46:14.151Z,25.48
2023-03-25T18:48:41.335Z,24.23
2023-03-25T18:51:10.713Z,19.45
2023-03-25T18:53:37.983Z,19.13
2023-03-25T18:56:05.214Z,17.30
2023-03-25T18:58:34.035Z,17.65
2023-03-25T19:01:02.887Z,16.15
2023-03-25T19:03:38.595Z,14.40
2023-03-25T19:06:11.596Z,12.13
2023-03-25T19:08:39.235Z,13.15
2023-03-25T19:11:19.206Z,12.60
2023-03-25T19:13:48.811Z,15.73
2023-03-25T19:16:15.637Z,19.50
2023-03-25T19:18:42.583Z,17.77
2023-03-25T19:21:14.150Z,19.20
2023-03-25T19:23:42.420Z,22.52
2023-03-25T19:26:09.191Z,24.38
2023-03-25T19:28:35.970Z,23.17
2023-03-25T19:31:03.168Z,19.70
2023-03-25T19:33:31.485Z,20.15
2023-03-25T19:36:01.408Z,21.58
2023-03-25T19:38:29.998Z,19.67
2023-03-25T19:41:10.349Z,18.70
2023-03-25T19:43:37.395Z,19.17
2023-03-25T19:46:05.703Z,18.40
2023-03-25T19:48:33.411Z,17.50
2023-03-25T19:51:00.224Z,17.08
2023-03-25T19:53:28.303Z,16.27
2023-03-25T19:55:55.787Z,15.23
2023-03-25T19:58:23.416Z,14.20
2023-03-25T20:00:50.666Z,15.85
2023-03-25T20:03:22.548Z,16.42
2023-03-25T20:08:16.984Z,12.98
2023-03-25T20:10:43.823Z,12.48
2023-03-25T20:13:10.765Z,10.57
2023-03-25T20:15:37.511Z,10.27
2023-03-25T20:18:04.764Z,9.98
2023-03-25T20:20:31.589Z,9.02
2023-03-25T20:22:58.365Z,9.95
2023-03-25T20:25:25.080Z,8.40
2023-03-25T20:27:52.353Z,8.85
2023-03-25T20:30:20.559Z,8.65
2023-03-25T20:32:48.777Z,7.57
2023-03-25T20:35:18.105Z,9.82
2023-03-25T20:37:46.542Z,8.15
2023-03-25T20:40:16.627Z,9.73
2023-03-25T20:42:45.484Z,8.93
2023-03-25T20:45:14.215Z,10.35
2023-03-25T20:47:41.938Z,10.52
2023-03-25T20:50:11.095Z,11.20
2023-03-25T20:52:38.221Z,11.50
2023-03-25T20:55:05.847Z,11.43
2023-03-25T20:57:32.848Z,11.07
2023-03-25T20:59:59.641Z,10.23
2023-03-25T21:02:27.242Z,10.20
2023-03-25T21:04:57.030Z,9.25
2023-03-25T21:07:27.839Z,8.50
2023-03-25T21:09:54.988Z,7.45
2023-03-25T21:12:27.139Z,8.80
2023-03-25T21:14:59.951Z,8.13
2023-03-25T21:17:27.915Z,6.22
2023-03-25T21:19:55.020Z,5.90
2023-03-25T21:22:22.031Z,5.18
2023-03-25T21:24:48.905Z,4.38
2023-03-25T21:27:17.755Z,4.20
2023-03-25T21:29:46.191Z,3.80
2023-03-25T21:32:15.114Z,3.88
2023-03-25T21:34:42.561Z,3.78
2023-03-25T21:37:09.260Z,3.80
2023-03-25T21:39:37.479Z,4.03
2023-03-25T21:42:10.058Z,3.80
2023-03-25T21:44:38.184Z,4.10
2023-03-25T21:47:08.632Z,4.65
2023-03-25T21:49:35.604Z,4.93
2023-03-25T21:52:02.634Z,3.63
2023-03-25T21:54:30.566Z,3.42
2023-03-25T21:56:57.472Z,3.05
2023-03-25T21:59:25.403Z,3.17
2023-03-25T22:01:53.684Z,3.15
2023-03-25T22:04:20.660Z,3.08
2023-03-25T22:06:47.374Z,3.70
2023-03-25T22:09:14.047Z,2.88
2023-03-25T22:11:40.969Z,2.60
2023-03-25T22:14:09.495Z,2.72
2023-03-25T22:16:37.028Z,2.35
2023-03-25T22:19:04.474Z,3.17
2023-03-25T22:21:37.200Z,2.60
2023-03-25T22:24:05.672Z,2.08
2023-03-25T22:26:33.417Z,3.35
2023-03-25T22:29:02.963Z,2.63
2023-03-25T22:31:31.921Z,2.45
2023-03-25T22:34:03.405Z,2.55
2023-03-25T22:36:32.052Z,2.75
2023-03-25T22:38:59.700Z,2.50
2023-03-25T22:41:27.206Z,2.50
2023-03-25T22:43:53.966Z,3.55
2023-03-25T22:46:20.870Z,2.80
2023-03-25T22:48:47.846Z,2.33
2023-03-25T22:51:17.603Z,2.72
2023-03-25T22:53:45.447Z,1.90
2023-03-25T22:56:13.130Z,1.77
2023-03-25T22:58:40.531Z,0.90
2023-03-25T23:01:18.905Z,1.38
2023-03-25T23:03:45.728Z,1.15
2023-03-25T23:06:12.705Z,2.05
2023-03-25T23:08:40.282Z,1.33
2023-03-25T23:11:17.157Z,1.52
2023-03-25T23:13:47.756Z,1.63
2023-03-25T23:16:17.224Z,1.30
2023-03-25T23:18:44.937Z,1.00
2023-03-25T23:21:14.814Z,1.10
2023-03-25T23:23:52.841Z,0.88
2023-03-25T23:26:29.032Z,0.70
2023-03-25T23:29:00.623Z,0.45
2023-03-25T23:31:34.156Z,0.30
2023-03-25T23:34:04.784Z,0.28
2023-03-25T23:36:34.378Z,0.38
2023-03-25T23:39:02.436Z,0.30
2023-03-25T23:41:29.648Z,0.70
2023-03-25T23:43:56.657Z,0.25
2023-03-25T23:46:25.148Z,0.40
2023-03-25T23:48:55.033Z,0.47
2023-03-25T23:51:24.557Z,0.40
2023-03-25T23:53:52.555Z,0.40
2023-03-25T23:56:21.763Z,0.65
2023-03-25T23:58:49.144Z,0.50
